createdAt,value
2019-02-25T00:00:13.979Z,4.10
2019-02-25T00:02:45.881Z,4.10
2019-02-25T00:05:16.123Z,3.90
2019-02-25T00:07:48.169Z,3.70
2019-02-25T00:10:18.448Z,3.60
2019-02-25T00:12:49.642Z,3.70
2019-02-25T00:15:22.898Z,3.70
2019-02-25T00:17:53.292Z,3.50
2019-02-25T00:20:26.141Z,3.40
2019-02-25T00:22:56.279Z,3.60
2019-02-25T00:25:26.624Z,3.80
2019-02-25T00:27:56.979Z,4.10
2019-02-25T00:30:27.371Z,4.10
2019-02-25T00:32:57.671Z,4.10
2019-02-25T00:35:27.955Z,4.10
2019-02-25T00:37:58.313Z,4.20
2019-02-25T00:40:28.705Z,4.20
2019-02-25T00:42:59.242Z,4.40
2019-02-25T00:45:29.503Z,4.60
2019-02-25T00:47:59.858Z,4.60
2019-02-25T00:50:30.168Z,4.70
2019-02-25T00:53:01.321Z,4.60
2019-02-25T00:55:31.679Z,4.50
2019-02-25T00:58:01.993Z,4.50
2019-02-25T01:00:32.353Z,4.40
2019-02-25T01:03:02.828Z,4.30
2019-02-25T01:05:33.098Z,4.20
2019-02-25T01:08:03.643Z,4.20
2019-02-25T01:10:33.933Z,4.20
2019-02-25T01:13:04.412Z,4.00
2019-02-25T01:15:34.771Z,3.90
2019-02-25T01:18:05.065Z,4.00
2019-02-25T01:20:35.353Z,4.10
2019-02-25T01:23:06.254Z,4.30
2019-02-25T01:25:36.647Z,4.10
2019-02-25T01:28:06.901Z,4.00
2019-02-25T01:30:37.234Z,3.80
2019-02-25T01:33:07.531Z,3.80
2019-02-25T01:35:37.917Z,3.70
2019-02-25T01:38:09.295Z,3.50
2019-02-25T01:40:39.703Z,3.50
2019-02-25T01:43:10.132Z,3.60
2019-02-25T01:45:40.516Z,3.60
2019-02-25T01:48:13.727Z,3.80
2019-02-25T01:50:44.126Z,3.90
2019-02-25T01:53:14.489Z,3.90
2019-02-25T01:55:44.712Z,3.80
2019-02-25T01:58:15.083Z,3.90
2019-02-25T02:00:45.393Z,3.90
2019-02-25T02:03:15.744Z,3.90
2019-02-25T02:05:46.106Z,4.00
2019-02-25T02:08:16.400Z,3.90
2019-02-25T02:10:46.908Z,3.80
2019-02-25T02:13:17.252Z,3.80
2019-02-25T02:15:48.122Z,3.70
2019-02-25T02:18:18.504Z,3.60
2019-02-25T02:20:48.888Z,3.70
2019-02-25T02:23:19.149Z,3.80
2019-02-25T02:25:49.617Z,3.70
2019-02-25T02:28:19.992Z,3.60
2019-02-25T02:30:50.397Z,3.60
2019-02-25T02:33:20.688Z,3.70
2019-02-25T02:35:51.624Z,3.30
2019-02-25T02:38:21.905Z,3.30
2019-02-25T02:40:53.792Z,3.20
2019-02-25T02:43:24.153Z,3.10
2019-02-25T02:46:02.074Z,3.20
2019-02-25T02:48:48.165Z,3.20
2019-02-25T02:51:18.478Z,3.10
2019-02-25T02:53:48.732Z,3.40
2019-02-25T02:56:18.985Z,3.70
2019-02-25T02:58:50.636Z,3.90
2019-02-25T03:01:21.052Z,4.00
2019-02-25T03:03:51.309Z,4.00
2019-02-25T03:06:21.619Z,4.10
2019-02-25T03:08:52.421Z,4.20
2019-02-25T03:11:22.641Z,4.30
2019-02-25T03:13:53.245Z,4.20
2019-02-25T03:16:23.656Z,4.30
2019-02-25T03:18:54.023Z,4.20
2019-02-25T03:21:24.281Z,4.30
2019-02-25T03:23:54.736Z,4.10
2019-02-25T03:26:25.031Z,4.00
2019-02-25T03:28:55.397Z,4.00
2019-02-25T03:31:27.289Z,3.80
2019-02-25T03:33:57.591Z,3.70
2019-02-25T03:36:27.905Z,3.50
2019-02-25T03:38:58.256Z,3.40
2019-02-25T03:41:28.616Z,3.40
2019-02-25T03:43:58.980Z,3.40
2019-02-25T03:46:29.263Z,3.40
2019-02-25T03:48:59.520Z,3.20
2019-02-25T03:51:29.782Z,3.00
2019-02-25T03:54:00.034Z,2.80
2019-02-25T03:56:30.293Z,2.80
2019-02-25T03:59:00.587Z,2.80
2019-02-25T04:01:30.844Z,2.80
2019-02-25T04:04:01.125Z,2.70
2019-02-25T04:06:31.518Z,2.70
2019-02-25T04:09:01.881Z,2.90
2019-02-25T04:11:34.140Z,3.20
2019-02-25T04:14:04.534Z,3.10
2019-02-25T04:16:34.763Z,3.10
2019-02-25T04:19:05.129Z,3.10
2019-02-25T04:21:35.384Z,3.10
2019-02-25T04:24:05.812Z,3.20
2019-02-25T04:26:36.099Z,3.40
2019-02-25T04:29:06.376Z,3.10
2019-02-25T04:31:36.606Z,3.10
2019-02-25T04:34:06.908Z,3.30
2019-02-25T04:36:37.131Z,3.20
2019-02-25T04:39:07.395Z,3.10
2019-02-25T04:41:37.628Z,3.00
2019-02-25T04:44:08.425Z,3.10
2019-02-25T04:46:38.688Z,3.10
2019-02-25T04:49:08.972Z,3.10
2019-02-25T04:51:40.218Z,3.20
2019-02-25T04:54:10.500Z,3.20
2019-02-25T04:56:42.392Z,3.10
2019-02-25T04:59:12.948Z,3.00
2019-02-25T05:01:43.279Z,2.90
2019-02-25T05:04:16.216Z,2.80
2019-02-25T05:06:46.471Z,2.60
2019-02-25T05:09:18.412Z,2.50
2019-02-25T05:11:48.747Z,2.50
2019-02-25T05:14:19.539Z,2.40
2019-02-25T05:16:49.834Z,2.50
2019-02-25T05:19:20.234Z,2.60
2019-02-25T05:21:50.611Z,2.40
2019-02-25T05:24:21.061Z,2.30
2019-02-25T05:26:51.433Z,2.20
2019-02-25T05:29:21.814Z,2.20
2019-02-25T05:31:52.180Z,2.10
2019-02-25T05:34:22.500Z,2.00
2019-02-25T05:36:52.831Z,2.00
2019-02-25T05:39:23.192Z,1.90
2019-02-25T05:41:53.541Z,1.80
2019-02-25T05:44:23.900Z,1.90
2019-02-25T05:46:54.179Z,2.00
2019-02-25T05:49:26.040Z,1.90
2019-02-25T05:51:56.324Z,1.90
2019-02-25T05:54:26.644Z,2.00
2019-02-25T05:56:57.013Z,2.10
2019-02-25T05:59:27.452Z,2.10
2019-02-25T06:01:58.862Z,2.10
2019-02-25T06:04:29.377Z,2.10
2019-02-25T06:06:59.888Z,2.20
2019-02-25T06:09:30.255Z,2.20
2019-02-25T06:12:00.699Z,2.10
2019-02-25T06:14:31.294Z,2.30
2019-02-25T06:17:01.726Z,2.40
2019-02-25T06:19:32.193Z,2.50
2019-02-25T06:22:02.644Z,2.20
2019-02-25T06:24:34.032Z,2.10
2019-02-25T06:27:04.498Z,2.10
2019-02-25T06:29:35.094Z,2.00
2019-02-25T06:32:05.641Z,2.00
2019-02-25T06:34:36.677Z,2.00
2019-02-25T06:37:07.032Z,2.00
2019-02-25T06:39:37.513Z,2.10
2019-02-25T06:42:08.037Z,2.20
2019-02-25T06:44:38.626Z,2.10
2019-02-25T06:47:09.249Z,2.10
2019-02-25T06:49:39.831Z,2.10
2019-02-25T06:52:10.272Z,2.10
2019-02-25T06:54:40.695Z,2.10
2019-02-25T06:57:11.171Z,1.80
2019-02-25T06:59:41.619Z,1.80
2019-02-25T07:02:11.954Z,1.80
2019-02-25T07:04:49.573Z,1.70
2019-02-25T07:07:48.183Z,1.70
2019-02-25T07:10:30.750Z,1.80
2019-02-25T07:13:11.800Z,1.90
2019-02-25T07:15:57.456Z,2.00
2019-02-25T07:18:45.563Z,2.10
2019-02-25T07:21:33.816Z,2.20
2019-02-25T07:24:26.251Z,2.30
2019-02-25T07:27:18.462Z,2.10
2019-02-25T07:30:08.137Z,2.00
2019-02-25T07:32:57.552Z,2.00
2019-02-25T07:35:37.852Z,2.00
2019-02-25T07:38:27.224Z,2.10
2019-02-25T07:41:17.923Z,2.20
2019-02-25T07:44:25.871Z,2.30
2019-02-25T07:47:19.765Z,2.50
2019-02-25T07:50:08.836Z,2.80
2019-02-25T07:52:48.874Z,3.00
2019-02-25T07:55:29.990Z,3.10
2019-02-25T07:58:13.942Z,3.20
2019-02-25T08:00:53.687Z,3.30
2019-02-25T08:03:30.416Z,3.50
2019-02-25T08:06:31.633Z,3.60
2019-02-25T08:09:20.629Z,3.60
2019-02-25T08:12:17.515Z,3.60
2019-02-25T08:15:22.103Z,3.70
2019-02-25T08:18:13.569Z,4.00
2019-02-25T08:21:14.809Z,4.40
2019-02-25T08:24:11.068Z,4.60
2019-02-25T08:27:00.953Z,4.70
2019-02-25T08:29:48.940Z,4.70
2019-02-25T08:32:32.468Z,4.80
2019-02-25T08:35:20.568Z,4.80
2019-02-25T08:38:21.755Z,4.90
2019-02-25T08:41:26.526Z,5.00
2019-02-25T08:44:08.709Z,5.10
2019-02-25T08:46:49.282Z,5.30
2019-02-25T08:49:31.517Z,5.60
2019-02-25T08:52:04.735Z,5.50
2019-02-25T08:54:36.735Z,5.60
2019-02-25T08:57:08.948Z,5.70
2019-02-25T08:59:39.430Z,5.80
2019-02-25T09:02:09.864Z,5.90
2019-02-25T09:04:42.297Z,5.90
2019-02-25T09:07:12.636Z,6.20
2019-02-25T09:09:45.361Z,6.50
2019-02-25T09:12:20.864Z,6.60
2019-02-25T09:14:56.068Z,6.70
2019-02-25T09:17:28.944Z,6.80
2019-02-25T09:19:59.257Z,6.90
2019-02-25T09:22:31.300Z,7.20
2019-02-25T09:25:01.682Z,7.20
2019-02-25T09:27:34.202Z,7.70
2019-02-25T09:30:05.219Z,7.70
2019-02-25T09:32:35.876Z,7.80
2019-02-25T09:35:06.467Z,7.80
2019-02-25T09:37:37.338Z,7.90
2019-02-25T09:40:10.550Z,8.10
2019-02-25T09:42:41.000Z,8.20
2019-02-25T09:45:12.984Z,8.50
2019-02-25T09:47:43.447Z,8.60
2019-02-25T09:50:14.140Z,8.90
2019-02-25T09:52:44.444Z,9.00
2019-02-25T09:55:14.897Z,9.20
2019-02-25T09:57:46.632Z,9.10
2019-02-25T10:00:17.161Z,9.40
2019-02-25T10:02:48.982Z,9.70
2019-02-25T10:05:20.095Z,9.70
2019-02-25T10:07:50.539Z,9.80
2019-02-25T10:10:20.979Z,10.00
2019-02-25T10:12:51.485Z,10.20
2019-02-25T10:15:21.779Z,10.20
2019-02-25T10:17:52.067Z,10.30
2019-02-25T10:20:22.311Z,10.40
2019-02-25T10:22:52.623Z,10.70
2019-02-25T10:25:22.943Z,11.00
2019-02-25T10:27:53.727Z,11.00
2019-02-25T10:30:24.053Z,11.00
2019-02-25T10:32:54.381Z,11.20
2019-02-25T10:35:25.019Z,11.20
2019-02-25T10:37:58.554Z,11.30
2019-02-25T10:40:28.876Z,11.70
2019-02-25T10:42:59.938Z,11.70
2019-02-25T10:45:30.250Z,11.70
2019-02-25T10:48:00.816Z,11.90
2019-02-25T10:50:33.382Z,11.90
2019-02-25T10:53:03.848Z,11.70
2019-02-25T10:55:44.360Z,12.10
2019-02-25T10:58:14.212Z,12.20
2019-02-25T11:00:46.090Z,12.30
2019-02-25T11:03:17.983Z,12.30
2019-02-25T11:05:48.800Z,12.90
2019-02-25T11:08:21.583Z,13.20
2019-02-25T11:10:57.990Z,13.30
2019-02-25T11:13:29.755Z,13.30
2019-02-25T11:16:00.700Z,13.60
2019-02-25T11:18:31.197Z,13.60
2019-02-25T11:21:03.611Z,13.70
2019-02-25T11:23:34.713Z,13.80
2019-02-25T11:26:05.213Z,13.80
2019-02-25T11:28:38.438Z,13.90
2019-02-25T11:31:07.964Z,13.90
2019-02-25T11:33:38.329Z,14.10
2019-02-25T11:36:10.447Z,14.30
2019-02-25T11:38:40.941Z,14.00
2019-02-25T11:41:12.719Z,14.30
2019-02-25T11:43:43.978Z,14.40
2019-02-25T11:46:15.424Z,14.30
2019-02-25T11:48:47.513Z,14.30
2019-02-25T11:51:18.562Z,14.30
2019-02-25T11:53:48.918Z,14.70
2019-02-25T11:56:22.274Z,15.00
2019-02-25T11:58:52.705Z,14.50
2019-02-25T12:01:23.086Z,14.70
2019-02-25T12:03:53.579Z,15.10
2019-02-25T12:06:23.978Z,14.90
2019-02-25T12:08:54.369Z,14.90
2019-02-25T12:11:24.927Z,14.70
2019-02-25T12:13:55.299Z,14.80
2019-02-25T12:16:26.328Z,14.60
2019-02-25T12:18:57.143Z,15.00
2019-02-25T12:21:28.788Z,15.10
2019-02-25T12:23:59.216Z,14.90
2019-02-25T12:26:29.761Z,15.20
2019-02-25T12:29:10.626Z,15.40
2019-02-25T12:31:35.976Z,15.50
2019-02-25T12:34:08.004Z,15.60
2019-02-25T12:36:39.432Z,15.80
2019-02-25T12:39:10.932Z,15.60
2019-02-25T12:41:41.364Z,15.60
2019-02-25T12:44:11.795Z,15.70
2019-02-25T12:46:42.262Z,15.80
2019-02-25T12:49:13.873Z,15.90
2019-02-25T12:51:44.739Z,15.90
2019-02-25T12:54:18.005Z,15.90
2019-02-25T12:56:48.484Z,16.20
2019-02-25T12:59:19.657Z,16.20
2019-02-25T13:01:50.016Z,16.00
2019-02-25T13:04:20.820Z,16.00
2019-02-25T13:06:51.320Z,16.20
2019-02-25T13:09:21.758Z,16.00
2019-02-25T13:11:52.280Z,16.00
2019-02-25T13:14:22.745Z,15.90
2019-02-25T13:16:53.326Z,15.90
2019-02-25T13:19:23.944Z,16.00
2019-02-25T13:21:54.756Z,16.20
2019-02-25T13:24:26.209Z,16.20
2019-02-25T13:26:56.969Z,16.10
2019-02-25T13:29:29.023Z,16.30
2019-02-25T13:31:59.557Z,16.40
2019-02-25T13:34:29.969Z,16.60
2019-02-25T13:37:00.409Z,16.70
2019-02-25T13:39:32.426Z,16.80
2019-02-25T13:42:02.847Z,16.90
2019-02-25T13:44:37.108Z,16.90
2019-02-25T13:47:08.712Z,16.80
2019-02-25T13:49:39.068Z,16.70
2019-02-25T13:52:09.897Z,16.60
2019-02-25T13:54:40.331Z,16.70
2019-02-25T13:57:10.718Z,16.80
2019-02-25T13:59:41.417Z,16.80
2019-02-25T14:02:14.827Z,17.10
2019-02-25T14:04:45.540Z,17.00
2019-02-25T14:07:16.192Z,17.00
2019-02-25T14:09:46.591Z,16.80
2019-02-25T14:12:18.709Z,16.80
2019-02-25T14:14:49.114Z,17.00
2019-02-25T14:17:20.792Z,17.00
2019-02-25T14:19:52.063Z,16.80
2019-02-25T14:22:22.514Z,17.10
2019-02-25T14:24:53.146Z,17.10
2019-02-25T14:27:23.565Z,17.10
2019-02-25T14:29:55.372Z,16.80
2019-02-25T14:32:27.813Z,17.00
2019-02-25T14:34:58.001Z,17.00
2019-02-25T14:37:30.419Z,17.00
2019-02-25T14:40:04.068Z,17.30
2019-02-25T14:42:36.372Z,17.40
2019-02-25T14:45:09.324Z,17.30
2019-02-25T14:47:40.079Z,17.10
2019-02-25T14:50:14.254Z,17.20
2019-02-25T14:52:45.190Z,17.10
2019-02-25T14:55:16.071Z,17.30
2019-02-25T14:57:46.743Z,17.40
2019-02-25T15:00:23.372Z,17.00
2019-02-25T15:02:53.451Z,17.20
2019-02-25T15:05:24.961Z,17.20
2019-02-25T15:07:55.367Z,17.40
2019-02-25T15:10:29.091Z,17.30
2019-02-25T15:12:59.106Z,17.00
2019-02-25T15:15:30.262Z,17.30
2019-02-25T15:18:04.928Z,17.40
2019-02-25T15:20:35.983Z,17.40
2019-02-25T15:23:07.471Z,17.30
2019-02-25T15:25:42.129Z,17.10
2019-02-25T15:28:13.620Z,17.00
2019-02-25T15:30:46.043Z,16.90
2019-02-25T15:33:17.516Z,16.60
2019-02-25T15:35:48.114Z,16.80
2019-02-25T15:38:18.907Z,16.80
2019-02-25T15:40:49.390Z,16.70
2019-02-25T15:43:21.293Z,16.60
2019-02-25T15:45:52.239Z,16.70
2019-02-25T15:48:28.684Z,16.50
2019-02-25T15:51:04.087Z,16.70
2019-02-25T15:53:42.419Z,16.80
2019-02-25T15:56:13.339Z,16.40
2019-02-25T15:58:43.807Z,16.40
2019-02-25T16:01:19.856Z,16.30
2019-02-25T16:03:56.524Z,16.00
2019-02-25T16:06:29.634Z,16.00
2019-02-25T16:09:02.932Z,15.90
2019-02-25T16:11:36.644Z,15.70
2019-02-25T16:14:07.137Z,15.50
2019-02-25T16:16:38.983Z,15.30
2019-02-25T16:19:09.717Z,15.20
2019-02-25T16:21:42.770Z,15.00
2019-02-25T16:24:18.712Z,15.20
2019-02-25T16:26:49.529Z,15.60
2019-02-25T16:29:26.348Z,16.00
2019-02-25T16:32:01.874Z,16.00
2019-02-25T16:34:42.646Z,15.10
2019-02-25T16:37:12.021Z,14.10
2019-02-25T16:39:42.176Z,13.70
2019-02-25T16:42:12.757Z,13.50
2019-02-25T16:44:44.146Z,13.30
2019-02-25T16:47:15.990Z,13.20
2019-02-25T16:49:50.345Z,13.10
2019-02-25T16:52:24.508Z,12.90
2019-02-25T16:55:08.742Z,12.70
2019-02-25T16:57:41.183Z,12.50
2019-02-25T17:00:14.505Z,12.40
2019-02-25T17:02:47.871Z,12.30
2019-02-25T17:05:20.192Z,12.10
2019-02-25T17:07:57.554Z,12.10
2019-02-25T17:10:29.681Z,11.90
2019-02-25T17:13:00.171Z,11.80
2019-02-25T17:15:30.677Z,11.50
2019-02-25T17:18:03.290Z,11.40
2019-02-25T17:20:34.200Z,11.30
2019-02-25T17:23:04.759Z,11.10
2019-02-25T17:25:36.191Z,10.90
2019-02-25T17:28:14.506Z,10.80
2019-02-25T17:30:43.387Z,10.60
2019-02-25T17:33:15.355Z,10.30
2019-02-25T17:35:47.590Z,10.30
2019-02-25T17:38:20.929Z,10.20
2019-02-25T17:40:52.649Z,10.10
2019-02-25T17:43:23.464Z,10.00
2019-02-25T17:45:58.266Z,9.90
2019-02-25T17:48:31.711Z,9.70
2019-02-25T17:51:03.954Z,9.60
2019-02-25T17:53:34.833Z,9.50
2019-02-25T17:56:05.559Z,9.40
2019-02-25T17:58:38.267Z,9.30
2019-02-25T18:01:09.909Z,9.10
2019-02-25T18:03:42.238Z,9.10
2019-02-25T18:06:13.127Z,9.10
2019-02-25T18:08:43.826Z,8.90
2019-02-25T18:11:15.744Z,8.70
2019-02-25T18:13:48.810Z,8.60
2019-02-25T18:16:20.739Z,8.50
2019-02-25T18:18:54.355Z,8.40
2019-02-25T18:21:28.285Z,8.40
2019-02-25T18:23:57.566Z,8.40
2019-02-25T18:26:34.444Z,8.20
2019-02-25T18:29:05.572Z,8.10
2019-02-25T18:31:37.171Z,7.90
2019-02-25T18:34:09.183Z,7.90
2019-02-25T18:36:40.708Z,7.90
2019-02-25T18:39:14.573Z,7.90
2019-02-25T18:41:46.085Z,7.80
2019-02-25T18:44:17.870Z,7.70
2019-02-25T18:46:49.898Z,7.70
2019-02-25T18:49:21.079Z,7.60
2019-02-25T18:51:53.835Z,7.70
2019-02-25T18:54:25.481Z,7.70
2019-02-25T18:56:56.995Z,7.80
2019-02-25T18:59:29.219Z,7.70
2019-02-25T19:01:59.827Z,7.70
2019-02-25T19:04:45.637Z,7.70
2019-02-25T19:07:17.137Z,7.50
2019-02-25T19:09:49.333Z,7.40
2019-02-25T19:12:19.950Z,7.40
2019-02-25T19:14:53.008Z,7.40
2019-02-25T19:17:31.479Z,7.40
2019-02-25T19:20:02.238Z,7.40
2019-02-25T19:22:35.425Z,7.30
2019-02-25T19:25:09.429Z,7.20
2019-02-25T19:27:39.044Z,7.10
2019-02-25T19:30:10.016Z,7.10
2019-02-25T19:32:40.821Z,6.90
2019-02-25T19:35:14.663Z,6.70
2019-02-25T19:37:46.896Z,6.80
2019-02-25T19:40:21.847Z,6.80
2019-02-25T19:42:54.107Z,6.80
2019-02-25T19:45:24.966Z,6.70
2019-02-25T19:47:57.726Z,6.50
2019-02-25T19:50:32.898Z,6.30
2019-02-25T19:53:19.995Z,6.40
2019-02-25T19:55:55.585Z,6.50
2019-02-25T19:58:36.458Z,6.70
2019-02-25T20:01:13.474Z,6.70
2019-02-25T20:03:47.720Z,6.50
2019-02-25T20:06:19.184Z,6.40
2019-02-25T20:08:51.098Z,6.40
2019-02-25T20:11:22.202Z,6.60
2019-02-25T20:13:52.642Z,6.40
2019-02-25T20:16:25.976Z,6.20
2019-02-25T20:18:56.038Z,6.10
2019-02-25T20:21:29.327Z,6.10
2019-02-25T20:24:00.860Z,6.10
2019-02-25T20:26:32.704Z,6.10
2019-02-25T20:29:12.747Z,5.90
2019-02-25T20:31:43.319Z,5.90
2019-02-25T20:34:16.549Z,5.90
2019-02-25T20:36:47.979Z,6.00
2019-02-25T20:39:18.086Z,6.00
2019-02-25T20:41:52.201Z,6.10
2019-02-25T20:44:24.174Z,6.10
2019-02-25T20:46:57.262Z,6.00
2019-02-25T20:49:31.858Z,6.00
2019-02-25T20:52:02.377Z,6.00
2019-02-25T20:54:37.321Z,5.90
2019-02-25T20:57:04.956Z,5.60
2019-02-25T20:59:35.400Z,5.60
2019-02-25T21:02:09.688Z,5.60
2019-02-25T21:04:38.759Z,5.70
2019-02-25T21:07:13.128Z,5.70
2019-02-25T21:09:43.558Z,5.70
2019-02-25T21:12:17.689Z,5.70
2019-02-25T21:14:47.370Z,5.70
2019-02-25T21:17:17.792Z,5.80
2019-02-25T21:19:48.238Z,5.70
2019-02-25T21:22:23.174Z,5.80
2019-02-25T21:24:55.737Z,5.70
2019-02-25T21:27:28.337Z,5.80
2019-02-25T21:29:57.320Z,5.90
2019-02-25T21:32:28.939Z,5.90
2019-02-25T21:35:04.181Z,5.90
2019-02-25T21:37:34.000Z,5.80
2019-02-25T21:40:05.695Z,5.60
2019-02-25T21:42:39.045Z,5.60
2019-02-25T21:45:15.998Z,5.60
2019-02-25T21:47:43.740Z,5.70
2019-02-25T21:50:15.097Z,5.70
2019-02-25T21:52:46.136Z,5.40
2019-02-25T21:55:18.235Z,5.30
2019-02-25T21:57:48.658Z,5.50
2019-02-25T22:00:19.011Z,5.50
2019-02-25T22:02:50.905Z,5.60
2019-02-25T22:05:23.577Z,5.70
2019-02-25T22:07:57.780Z,5.60
2019-02-25T22:10:27.555Z,5.60
2019-02-25T22:13:04.240Z,5.50
2019-02-25T22:15:31.705Z,5.50
2019-02-25T22:18:03.814Z,5.30
2019-02-25T22:20:37.661Z,5.20
2019-02-25T22:23:07.999Z,5.30
2019-02-25T22:25:38.489Z,5.30
2019-02-25T22:28:09.967Z,5.30
2019-02-25T22:30:42.925Z,5.30
2019-02-25T22:33:25.010Z,5.40
2019-02-25T22:35:47.585Z,5.20
2019-02-25T22:38:17.911Z,5.10
2019-02-25T22:40:48.450Z,5.30
2019-02-25T22:43:20.780Z,5.30
2019-02-25T22:45:51.032Z,5.20
2019-02-25T22:48:23.202Z,5.00
2019-02-25T22:50:55.346Z,4.90
2019-02-25T22:53:25.348Z,4.80
2019-02-25T22:55:55.724Z,4.90
2019-02-25T22:58:27.886Z,5.00
2019-02-25T23:01:06.864Z,4.80
2019-02-25T23:03:41.009Z,5.00
2019-02-25T23:06:15.772Z,5.30
2019-02-25T23:08:48.344Z,5.20
2019-02-25T23:11:19.772Z,5.40
2019-02-25T23:13:52.418Z,5.50
2019-02-25T23:16:24.944Z,5.50
2019-02-25T23:18:54.644Z,5.40
2019-02-25T23:21:28.718Z,5.30
2019-02-25T23:24:00.490Z,5.30
2019-02-25T23:26:32.443Z,5.40
2019-02-25T23:29:02.866Z,5.30
2019-02-25T23:31:34.836Z,5.20
2019-02-25T23:34:07.556Z,5.20
2019-02-25T23:36:40.575Z,5.30
2019-02-25T23:39:09.908Z,5.20
2019-02-25T23:41:43.813Z,5.20
2019-02-25T23:44:15.068Z,5.10
2019-02-25T23:46:45.946Z,5.00
2019-02-25T23:49:16.237Z,5.00
2019-02-25T23:51:48.137Z,5.00
2019-02-25T23:54:21.493Z,5.00
2019-02-25T23:56:52.539Z,5.00
2019-02-25T23:59:24.767Z,5.10
